createdAt,value
2022-10-20T00:02:12.863Z,24.92
2022-10-20T00:04:40.369Z,25.90
2022-10-20T00:07:08.399Z,25.23
2022-10-20T00:09:35.936Z,27.67
2022-10-20T00:12:03.638Z,26.90
2022-10-20T00:14:33.470Z,28.05
2022-10-20T00:17:01.604Z,28.13
2022-10-20T00:19:29.965Z,27.98
2022-10-20T00:21:57.706Z,25.73
2022-10-20T00:24:25.395Z,25.17
2022-10-20T00:26:52.904Z,23.65
2022-10-20T00:29:20.601Z,22.73
2022-10-20T00:31:48.160Z,21.00
2022-10-20T00:34:15.701Z,22.08
2022-10-20T00:36:46.329Z,17.67
2022-10-20T00:39:16.539Z,16.40
2022-10-20T00:41:44.044Z,16.77
2022-10-20T00:44:49.090Z,15.85
2022-10-20T00:47:27.413Z,15.15
2022-10-20T00:49:57.994Z,14.60
2022-10-20T00:52:25.556Z,15.00
2022-10-20T00:54:53.080Z,14.88
2022-10-20T00:57:20.590Z,15.52
2022-10-20T00:59:48.117Z,15.68
2022-10-20T01:02:16.032Z,15.48
2022-10-20T01:04:43.820Z,14.70
2022-10-20T01:07:12.705Z,16.77
2022-10-20T01:09:40.261Z,14.60
2022-10-20T01:12:27.228Z,16.45
2022-10-20T01:15:34.353Z,17.38
2022-10-20T01:18:11.478Z,18.05
2022-10-20T01:21:00.888Z,18.25
2022-10-20T01:23:36.365Z,20.40
2022-10-20T01:26:12.752Z,22.08
2022-10-20T01:28:51.902Z,21.55
2022-10-20T01:31:45.780Z,22.10
2022-10-20T01:34:31.706Z,21.13
2022-10-20T01:37:28.133Z,21.17
2022-10-20T01:40:12.300Z,20.25
2022-10-20T01:42:42.125Z,20.85
2022-10-20T01:47:42.665Z,19.95
2022-10-20T01:52:39.392Z,20.20
2022-10-20T01:55:17.260Z,19.73
2022-10-20T01:58:28.458Z,20.33
2022-10-20T02:01:28.673Z,19.10
2022-10-20T02:04:00.289Z,18.83
2022-10-20T02:06:58.335Z,19.67
2022-10-20T02:09:34.834Z,19.90
2022-10-20T02:12:08.007Z,19.38
2022-10-20T02:14:38.702Z,19.15
2022-10-20T02:17:09.993Z,19.95
2022-10-20T02:19:43.606Z,19.02
2022-10-20T02:22:14.297Z,18.42
2022-10-20T02:24:44.916Z,18.50
2022-10-20T02:27:35.521Z,18.90
2022-10-20T02:30:08.051Z,18.25
2022-10-20T02:32:39.373Z,18.05
2022-10-20T02:35:14.837Z,18.48
2022-10-20T02:37:42.521Z,18.67
2022-10-20T02:40:11.518Z,17.65
2022-10-20T02:42:40.919Z,17.52
2022-10-20T02:45:08.858Z,16.95
2022-10-20T02:47:36.987Z,17.27
2022-10-20T02:50:06.420Z,15.82
2022-10-20T02:52:38.039Z,15.60
2022-10-20T02:55:06.517Z,14.82
2022-10-20T02:57:35.075Z,15.88
2022-10-20T03:00:04.903Z,15.40
2022-10-20T03:02:32.434Z,15.23
2022-10-20T03:05:00.000Z,15.55
2022-10-20T03:07:27.530Z,15.80
2022-10-20T03:09:57.141Z,16.15
2022-10-20T03:12:27.769Z,16.67
2022-10-20T03:14:57.739Z,16.67
2022-10-20T03:17:25.253Z,16.65
2022-10-20T03:19:52.764Z,18.05
2022-10-20T03:22:21.118Z,16.83
2022-10-20T03:24:48.985Z,16.90
2022-10-20T03:27:16.618Z,15.98
2022-10-20T03:29:44.723Z,16.48
2022-10-20T03:32:12.192Z,15.65
2022-10-20T03:34:42.538Z,15.68
2022-10-20T03:37:10.053Z,15.00
2022-10-20T03:39:37.911Z,16.58
2022-10-20T03:42:05.380Z,16.05
2022-10-20T03:44:32.910Z,15.05
2022-10-20T03:47:00.377Z,16.30
2022-10-20T03:49:27.840Z,16.23
2022-10-20T03:51:55.458Z,16.23
2022-10-20T03:54:24.129Z,16.45
2022-10-20T03:56:52.038Z,17.48
2022-10-20T03:59:19.524Z,17.27
2022-10-20T04:01:47.469Z,16.98
2022-10-20T04:04:15.426Z,16.75
2022-10-20T04:07:02.866Z,18.15
2022-10-20T04:09:30.748Z,17.63
2022-10-20T04:11:58.278Z,17.42
2022-10-20T04:14:25.786Z,17.08
2022-10-20T04:16:53.276Z,17.38
2022-10-20T04:19:20.816Z,18.38
2022-10-20T04:21:50.800Z,17.92
2022-10-20T04:24:18.427Z,17.05
2022-10-20T04:29:15.768Z,18.17
2022-10-20T04:31:46.808Z,18.10
2022-10-20T04:34:16.664Z,17.92
2022-10-20T04:36:45.160Z,18.65
2022-10-20T04:39:13.701Z,19.20
2022-10-20T04:41:42.791Z,19.52
2022-10-20T04:44:10.602Z,18.45
2022-10-20T04:46:39.660Z,19.73
2022-10-20T04:49:07.911Z,20.08
2022-10-20T04:51:35.966Z,20.25
2022-10-20T04:56:37.010Z,20.92
2022-10-20T04:59:08.310Z,19.35
2022-10-20T05:01:39.907Z,19.20
2022-10-20T05:04:07.628Z,18.95
2022-10-20T05:06:35.884Z,17.40
2022-10-20T05:09:08.024Z,17.02
2022-10-20T05:11:37.471Z,17.20
2022-10-20T05:14:05.129Z,15.98
2022-10-20T05:16:32.620Z,15.43
2022-10-20T05:19:00.958Z,14.73
2022-10-20T05:21:31.522Z,14.17
2022-10-20T05:24:05.093Z,14.40
2022-10-20T05:26:37.105Z,12.32
2022-10-20T05:29:07.081Z,12.85
2022-10-20T05:34:11.436Z,12.23
2022-10-20T05:36:39.924Z,11.50
2022-10-20T05:39:07.357Z,8.95
2022-10-20T05:41:38.736Z,8.63
2022-10-20T05:44:11.273Z,8.27
2022-10-20T05:46:41.873Z,8.05
2022-10-20T05:49:15.749Z,8.27
2022-10-20T05:51:45.979Z,7.13
2022-10-20T05:54:14.698Z,7.53
2022-10-20T05:56:44.092Z,7.13
2022-10-20T05:59:12.263Z,7.47
2022-10-20T06:01:48.446Z,6.18
2022-10-20T06:04:25.758Z,6.72
2022-10-20T06:06:56.056Z,6.50
2022-10-20T06:09:24.597Z,5.00
2022-10-20T06:11:54.215Z,4.88
2022-10-20T06:14:22.713Z,4.47
2022-10-20T06:16:52.017Z,4.40
2022-10-20T06:19:20.073Z,3.20
2022-10-20T06:21:49.591Z,2.00
2022-10-20T06:24:19.161Z,1.38
2022-10-20T06:26:47.077Z,1.45
2022-10-20T06:29:17.004Z,1.05
2022-10-20T06:31:50.087Z,1.00
2022-10-20T06:34:25.852Z,1.92
2022-10-20T06:36:53.527Z,1.73
2022-10-20T06:39:23.858Z,1.20
2022-10-20T06:41:53.708Z,1.10
2022-10-20T06:44:24.080Z,1.00
2022-10-20T06:46:55.292Z,1.13
2022-10-20T06:49:23.480Z,1.20
2022-10-20T06:51:51.036Z,1.20
2022-10-20T06:54:21.475Z,1.50
2022-10-20T06:56:49.052Z,1.42
2022-10-20T06:59:16.850Z,1.30
2022-10-20T07:01:44.665Z,1.17
2022-10-20T07:04:15.517Z,1.13
2022-10-20T07:06:45.283Z,1.02
2022-10-20T07:11:43.032Z,1.33
2022-10-20T07:14:13.737Z,1.40
2022-10-20T07:16:44.041Z,1.35
2022-10-20T07:19:11.967Z,1.25
2022-10-20T07:21:41.768Z,1.50
2022-10-20T07:24:13.489Z,1.25
2022-10-20T07:26:41.827Z,1.27
2022-10-20T07:29:10.629Z,1.20
2022-10-20T07:31:44.947Z,0.80
2022-10-20T07:34:25.089Z,1.00
2022-10-20T07:36:54.996Z,1.15
2022-10-20T07:39:23.271Z,0.73
2022-10-20T07:41:51.060Z,0.95
2022-10-20T07:44:19.209Z,1.10
2022-10-20T07:46:47.151Z,1.15
2022-10-20T07:52:02.735Z,1.20
2022-10-20T07:54:30.687Z,0.98
2022-10-20T07:56:58.221Z,1.25
2022-10-20T07:59:25.980Z,1.27
2022-10-20T08:01:56.137Z,1.55
2022-10-20T08:04:25.495Z,1.20
2022-10-20T08:06:52.971Z,1.30
2022-10-20T08:09:22.355Z,1.40
2022-10-20T08:11:52.859Z,1.20
2022-10-20T08:14:23.891Z,2.00
2022-10-20T08:16:52.063Z,1.35
2022-10-20T08:22:02.416Z,1.35
2022-10-20T08:24:30.394Z,1.15
2022-10-20T08:27:01.735Z,1.17
2022-10-20T08:29:29.587Z,1.00
2022-10-20T08:31:57.078Z,0.90
2022-10-20T08:34:24.628Z,1.48
2022-10-20T08:36:52.315Z,1.52
2022-10-20T08:39:19.855Z,1.00
2022-10-20T08:44:41.337Z,5.90
2022-10-20T08:47:26.755Z,41.33
2022-10-20T08:49:57.576Z,1.02
2022-10-20T08:52:27.170Z,0.50
2022-10-20T08:54:57.000Z,0.57
2022-10-20T09:00:14.078Z,0.70
2022-10-20T09:02:41.714Z,1.05
2022-10-20T09:05:16.684Z,0.85
2022-10-20T09:07:50.026Z,0.75
2022-10-20T09:10:45.588Z,0.60
2022-10-20T09:13:34.280Z,0.70
2022-10-20T09:16:07.036Z,0.80
2022-10-20T09:18:35.306Z,1.00
2022-10-20T09:21:15.566Z,1.00
2022-10-20T09:26:57.523Z,0.75
2022-10-20T09:29:35.775Z,0.80
2022-10-20T09:34:50.863Z,0.80
2022-10-20T09:37:20.048Z,0.90
2022-10-20T09:39:55.417Z,0.70
2022-10-20T09:42:28.369Z,0.70
2022-10-20T09:45:22.283Z,1.00
2022-10-20T09:47:56.858Z,0.60
2022-10-20T09:50:34.600Z,1.20
2022-10-20T09:53:06.496Z,0.63
2022-10-20T09:55:45.258Z,0.50
2022-10-20T09:58:27.544Z,0.80
2022-10-20T10:00:59.391Z,0.90
2022-10-20T10:03:28.021Z,0.60
2022-10-20T10:05:59.746Z,0.77
2022-10-20T10:08:40.871Z,0.70
2022-10-20T10:11:17.870Z,1.05
2022-10-20T10:13:48.085Z,0.70
2022-10-20T10:16:19.676Z,0.57
2022-10-20T10:18:57.144Z,0.32
2022-10-20T10:21:24.790Z,0.70
2022-10-20T10:23:54.324Z,1.15
2022-10-20T10:26:46.360Z,0.77
2022-10-20T10:29:23.179Z,0.60
2022-10-20T10:31:58.485Z,0.50
2022-10-20T10:34:37.721Z,0.50
2022-10-20T10:37:12.866Z,0.77
2022-10-20T10:39:41.720Z,0.70
2022-10-20T10:42:09.197Z,0.88
2022-10-20T10:44:55.202Z,0.80
2022-10-20T10:47:54.993Z,0.80
2022-10-20T10:53:26.120Z,0.70
2022-10-20T10:56:24.089Z,0.57
2022-10-20T10:59:05.785Z,0.60
2022-10-20T11:01:51.350Z,0.57
2022-10-20T11:04:46.713Z,0.70
2022-10-20T11:08:13.308Z,0.75
2022-10-20T11:11:34.340Z,0.55
2022-10-20T11:14:28.123Z,0.65
2022-10-20T11:17:20.097Z,1.45
2022-10-20T11:20:09.227Z,2.15
2022-10-20T11:23:09.495Z,1.88
2022-10-20T11:25:55.563Z,0.75
2022-10-20T11:28:32.968Z,0.68
2022-10-20T11:31:00.980Z,0.85
2022-10-20T11:33:41.452Z,0.90
2022-10-20T11:36:16.922Z,1.08
2022-10-20T11:38:54.017Z,1.58
2022-10-20T11:41:32.320Z,1.20
2022-10-20T11:44:08.491Z,1.30
2022-10-20T11:47:08.308Z,1.17
2022-10-20T11:49:40.009Z,1.20
2022-10-20T11:52:16.777Z,1.42
2022-10-20T11:54:55.193Z,1.60
2022-10-20T11:57:47.217Z,1.63
2022-10-20T12:00:55.098Z,18.50
2022-10-20T12:03:55.087Z,1.45
2022-10-20T12:06:33.508Z,2.30
2022-10-20T12:09:14.837Z,2.38
2022-10-20T12:12:00.931Z,2.30
2022-10-20T12:14:41.496Z,2.38
2022-10-20T12:17:42.188Z,2.13
2022-10-20T12:20:23.008Z,1.90
2022-10-20T12:22:54.007Z,2.00
2022-10-20T12:25:27.296Z,2.10
2022-10-20T12:28:19.767Z,2.17
2022-10-20T12:31:02.306Z,2.25
2022-10-20T12:33:59.986Z,2.28
2022-10-20T12:36:36.852Z,2.90
2022-10-20T12:39:13.283Z,2.63
2022-10-20T12:41:56.379Z,2.60
2022-10-20T12:44:24.705Z,2.00
2022-10-20T12:46:55.769Z,2.50
2022-10-20T12:49:57.362Z,2.85
2022-10-20T12:52:30.362Z,3.00
2022-10-20T12:58:18.132Z,3.15
2022-10-20T13:00:49.605Z,2.67
2022-10-20T13:03:32.511Z,3.13
2022-10-20T13:06:00.477Z,2.90
2022-10-20T13:08:33.875Z,13.75
2022-10-20T13:11:38.351Z,2.55
2022-10-20T13:14:06.418Z,2.30
2022-10-20T13:16:35.377Z,3.17
2022-10-20T13:19:08.492Z,3.17
2022-10-20T13:21:36.615Z,3.28
2022-10-20T13:24:13.662Z,4.07
2022-10-20T13:26:43.898Z,4.20
2022-10-20T13:29:17.831Z,3.63
2022-10-20T13:31:56.647Z,3.67
2022-10-20T13:34:31.162Z,3.60
2022-10-20T13:37:28.160Z,3.03
2022-10-20T13:39:55.653Z,3.50
2022-10-20T13:42:41.806Z,3.45
2022-10-20T13:45:12.624Z,3.20
2022-10-20T13:47:48.524Z,3.28
2022-10-20T13:50:44.207Z,3.33
2022-10-20T13:53:25.982Z,3.00
2022-10-20T13:56:07.873Z,3.08
2022-10-20T13:58:36.341Z,3.25
2022-10-20T14:01:17.003Z,3.70
2022-10-20T14:03:47.183Z,3.03
2022-10-20T14:06:34.920Z,3.55
2022-10-20T14:09:18.616Z,3.35
2022-10-20T14:12:14.672Z,3.30
2022-10-20T14:14:45.628Z,3.40
2022-10-20T14:17:22.802Z,5.72
2022-10-20T14:19:52.058Z,3.35
2022-10-20T14:22:23.408Z,3.80
2022-10-20T14:24:54.402Z,2.80
2022-10-20T14:27:25.842Z,2.70
2022-10-20T14:29:54.080Z,2.30
2022-10-20T14:32:28.235Z,2.40
2022-10-20T14:34:58.009Z,2.58
2022-10-20T14:40:02.353Z,2.20
2022-10-20T14:42:32.477Z,2.05
2022-10-20T14:45:02.920Z,2.00
2022-10-20T14:47:40.159Z,2.08
2022-10-20T14:50:19.416Z,2.05
2022-10-20T14:52:50.321Z,1.95
2022-10-20T14:55:37.261Z,2.10
2022-10-20T14:58:04.922Z,2.10
2022-10-20T15:00:36.733Z,2.13
2022-10-20T15:03:07.206Z,1.90
2022-10-20T15:05:45.305Z,2.30
2022-10-20T15:08:31.296Z,2.10
2022-10-20T15:11:02.453Z,2.20
2022-10-20T15:13:34.638Z,2.20
2022-10-20T15:16:04.587Z,1.98
2022-10-20T15:18:36.559Z,2.42
2022-10-20T15:21:08.191Z,2.17
2022-10-20T15:23:35.903Z,1.70
2022-10-20T15:26:13.872Z,2.33
2022-10-20T15:28:51.021Z,1.92
2022-10-20T15:31:26.607Z,2.00
2022-10-20T15:33:55.929Z,2.40
2022-10-20T15:36:29.650Z,1.90
2022-10-20T15:39:00.350Z,2.40
2022-10-20T15:41:35.157Z,2.28
2022-10-20T15:44:07.916Z,2.65
2022-10-20T15:46:36.433Z,2.80
2022-10-20T15:49:04.116Z,2.25
2022-10-20T15:51:34.816Z,2.83
2022-10-20T15:54:02.969Z,2.40
2022-10-20T15:56:30.884Z,2.47
2022-10-20T15:58:58.990Z,6.75
2022-10-20T16:01:28.110Z,2.67
2022-10-20T16:03:56.005Z,2.75
2022-10-20T16:06:23.758Z,2.97
2022-10-20T16:08:51.990Z,2.97
2022-10-20T16:11:21.834Z,2.95
2022-10-20T16:13:50.073Z,2.75
2022-10-20T16:16:19.487Z,3.08
2022-10-20T16:18:50.524Z,2.75
2022-10-20T16:21:18.171Z,2.65
2022-10-20T16:23:45.755Z,2.65
2022-10-20T16:26:15.122Z,2.60
2022-10-20T16:28:42.723Z,3.00
2022-10-20T16:31:13.138Z,2.90
2022-10-20T16:33:41.160Z,3.17
2022-10-20T16:36:11.024Z,2.58
2022-10-20T16:38:40.273Z,2.92
2022-10-20T16:41:10.951Z,2.88
2022-10-20T16:43:40.791Z,2.45
2022-10-20T16:46:10.071Z,3.20
2022-10-20T16:48:42.710Z,2.75
2022-10-20T16:51:13.234Z,2.90
2022-10-20T16:53:41.421Z,2.70
2022-10-20T16:56:09.107Z,3.00
2022-10-20T16:58:36.740Z,3.05
2022-10-20T17:01:09.833Z,3.38
2022-10-20T17:03:41.181Z,7.55
2022-10-20T17:06:09.512Z,3.20
2022-10-20T17:08:38.881Z,3.15
2022-10-20T17:11:12.650Z,2.60
2022-10-20T17:13:41.324Z,3.22
2022-10-20T17:16:12.695Z,3.03
2022-10-20T17:18:40.491Z,3.33
2022-10-20T17:21:10.909Z,3.53
2022-10-20T17:23:43.120Z,4.00
2022-10-20T17:26:18.252Z,3.00
2022-10-20T17:28:47.076Z,3.00
2022-10-20T17:33:49.191Z,3.15
2022-10-20T17:36:16.782Z,3.08
2022-10-20T17:38:46.292Z,3.03
2022-10-20T17:41:15.800Z,2.80
2022-10-20T17:43:43.991Z,2.42
2022-10-20T17:46:14.500Z,2.33
2022-10-20T17:48:44.387Z,42.88
2022-10-20T17:51:23.118Z,3.08
2022-10-20T17:53:52.532Z,2.90
2022-10-20T17:56:31.203Z,2.50
2022-10-20T17:59:00.659Z,2.88
2022-10-20T18:01:35.058Z,2.72
2022-10-20T18:04:09.022Z,2.75
2022-10-20T18:06:37.275Z,2.80
2022-10-20T18:09:10.893Z,2.92
2022-10-20T18:11:40.737Z,2.88
2022-10-20T18:14:08.724Z,2.78
2022-10-20T18:16:39.934Z,2.53
2022-10-20T18:19:09.172Z,3.10
2022-10-20T18:21:37.717Z,2.70
2022-10-20T18:24:08.355Z,2.53
2022-10-20T18:26:37.650Z,2.78
2022-10-20T18:29:07.657Z,2.60
2022-10-20T18:31:36.584Z,2.50
2022-10-20T18:34:07.327Z,2.15
2022-10-20T18:36:39.281Z,2.58
2022-10-20T18:39:10.432Z,3.13
2022-10-20T18:41:40.882Z,3.10
2022-10-20T18:44:12.361Z,2.60
2022-10-20T18:46:40.226Z,2.88
2022-10-20T18:49:09.560Z,2.22
2022-10-20T18:51:37.720Z,2.75
2022-10-20T18:54:06.775Z,2.55
2022-10-20T18:56:35.781Z,2.33
2022-10-20T18:59:09.591Z,2.50
2022-10-20T19:01:39.118Z,2.60
2022-10-20T19:04:09.826Z,2.38
2022-10-20T19:09:09.860Z,2.85
2022-10-20T19:11:39.725Z,2.53
2022-10-20T19:14:10.439Z,2.40
2022-10-20T19:16:41.468Z,2.20
2022-10-20T19:19:09.778Z,2.42
2022-10-20T19:21:38.089Z,2.40
2022-10-20T19:24:19.252Z,2.17
2022-10-20T19:29:43.213Z,2.50
2022-10-20T19:32:12.338Z,2.40
2022-10-20T19:34:41.158Z,2.38
2022-10-20T19:39:41.160Z,3.35
2022-10-20T19:42:09.945Z,2.15
2022-10-20T19:44:38.660Z,2.10
2022-10-20T19:47:08.118Z,6.85
2022-10-20T19:49:36.210Z,2.20
2022-10-20T19:52:04.461Z,1.95
2022-10-20T19:54:32.445Z,2.28
2022-10-20T19:57:00.137Z,2.03
2022-10-20T19:59:27.788Z,1.90
2022-10-20T20:01:55.397Z,2.13
2022-10-20T20:04:23.243Z,2.00
2022-10-20T20:06:50.887Z,2.10
2022-10-20T20:09:19.049Z,28.27
2022-10-20T20:11:46.668Z,2.20
2022-10-20T20:14:18.892Z,2.42
2022-10-20T20:16:47.737Z,1.98
2022-10-20T20:19:17.247Z,2.38
2022-10-20T20:21:46.125Z,2.23
2022-10-20T20:24:14.304Z,2.25
2022-10-20T20:26:42.100Z,2.10
2022-10-20T20:29:10.730Z,2.22
2022-10-20T20:31:38.294Z,2.10
2022-10-20T20:34:05.789Z,2.22
2022-10-20T20:36:33.336Z,2.55
2022-10-20T20:39:01.327Z,2.00
2022-10-20T20:41:31.254Z,2.35
2022-10-20T20:44:02.942Z,2.58
2022-10-20T20:46:34.388Z,2.47
2022-10-20T20:49:02.299Z,2.40
2022-10-20T20:51:33.522Z,2.03
2022-10-20T20:54:02.975Z,2.20
2022-10-20T20:56:31.644Z,2.50
2022-10-20T20:58:59.168Z,2.50
2022-10-20T21:01:28.619Z,2.00
2022-10-20T21:03:58.584Z,2.40
2022-10-20T21:06:33.889Z,2.40
2022-10-20T21:09:08.171Z,17.02
2022-10-20T21:11:37.831Z,3.15
2022-10-20T21:14:07.585Z,3.90
2022-10-20T21:16:37.332Z,2.35
2022-10-20T21:19:09.720Z,2.20
2022-10-20T21:21:44.444Z,2.00
2022-10-20T21:24:13.539Z,2.10
2022-10-20T21:26:41.074Z,2.15
2022-10-20T21:29:08.559Z,2.50
2022-10-20T21:31:39.247Z,2.60
2022-10-20T21:34:07.228Z,2.40
2022-10-20T21:36:37.818Z,2.45
2022-10-20T21:39:07.225Z,2.72
2022-10-20T21:41:36.420Z,2.50
2022-10-20T21:44:06.297Z,2.53
2022-10-20T21:46:44.003Z,3.25
2022-10-20T21:49:18.463Z,2.80
2022-10-20T21:51:49.352Z,2.92
2022-10-20T21:56:49.332Z,2.80
2022-10-20T21:59:36.846Z,3.13
2022-10-20T22:02:05.328Z,2.85
2022-10-20T22:04:33.109Z,2.55
2022-10-20T22:07:01.033Z,2.60
2022-10-20T22:10:32.696Z,2.35
2022-10-20T22:13:02.423Z,2.40
2022-10-20T22:15:30.345Z,2.78
2022-10-20T22:17:59.834Z,3.58
2022-10-20T22:20:27.447Z,2.33
2022-10-20T22:22:55.098Z,3.00
2022-10-20T22:25:22.788Z,6.57
2022-10-20T22:27:50.334Z,3.95
2022-10-20T22:30:18.235Z,2.55
2022-10-20T22:32:45.860Z,2.40
2022-10-20T22:35:13.475Z,2.30
2022-10-20T22:37:41.085Z,2.70
2022-10-20T22:40:09.285Z,3.58
2022-10-20T22:42:38.940Z,2.85
2022-10-20T22:45:07.319Z,1.90
2022-10-20T22:47:34.904Z,1.98
2022-10-20T22:50:02.806Z,2.00
2022-10-20T22:52:30.705Z,2.28
2022-10-20T22:55:00.527Z,2.13
2022-10-20T22:57:28.167Z,1.77
2022-10-20T22:59:55.615Z,2.20
2022-10-20T23:02:23.114Z,2.40
2022-10-20T23:04:50.898Z,2.20
2022-10-20T23:07:18.458Z,2.15
2022-10-20T23:09:47.748Z,2.20
2022-10-20T23:12:17.497Z,2.63
2022-10-20T23:14:45.411Z,2.10
2022-10-20T23:17:12.970Z,2.78
2022-10-20T23:19:40.580Z,3.67
2022-10-20T23:22:08.229Z,3.33
2022-10-20T23:24:36.136Z,3.30
2022-10-20T23:27:03.750Z,3.28
2022-10-20T23:29:32.313Z,2.40
2022-10-20T23:31:59.840Z,2.80
2022-10-20T23:34:27.640Z,2.47
2022-10-20T23:36:55.219Z,2.53
2022-10-20T23:39:22.757Z,2.20
2022-10-20T23:41:50.348Z,2.08
2022-10-20T23:44:17.853Z,2.40
2022-10-20T23:46:45.380Z,2.35
2022-10-20T23:49:13.194Z,2.65
2022-10-20T23:51:41.337Z,2.15
2022-10-20T23:54:08.867Z,2.70
2022-10-20T23:56:36.353Z,2.88
2022-10-20T23:59:03.802Z,2.58
